createdAt,value
2022-07-30T00:00:45.209Z,18.25
2022-07-30T00:03:12.345Z,18.20
2022-07-30T00:05:39.490Z,18.58
2022-07-30T00:08:07.091Z,18.58
2022-07-30T00:10:34.304Z,19.77
2022-07-30T00:13:05.530Z,21.15
2022-07-30T00:15:38.114Z,22.98
2022-07-30T00:18:05.265Z,23.38
2022-07-30T00:20:32.501Z,22.38
2022-07-30T00:23:08.662Z,24.25
2022-07-30T00:25:39.240Z,23.00
2022-07-30T00:28:08.128Z,24.17
2022-07-30T00:30:38.884Z,23.65
2022-07-30T00:33:08.159Z,23.63
2022-07-30T00:35:35.688Z,23.10
2022-07-30T00:38:03.269Z,24.27
2022-07-30T00:40:35.079Z,24.67
2022-07-30T00:43:02.257Z,25.10
2022-07-30T00:45:29.513Z,23.95
2022-07-30T00:48:04.646Z,23.90
2022-07-30T00:50:45.343Z,24.17
2022-07-30T00:55:45.288Z,24.90
2022-07-30T00:58:12.170Z,23.48
2022-07-30T01:00:44.958Z,22.92
2022-07-30T01:03:12.005Z,22.52
2022-07-30T01:05:39.148Z,23.17
2022-07-30T01:08:06.013Z,22.55
2022-07-30T01:10:33.340Z,23.48
2022-07-30T01:13:08.198Z,22.65
2022-07-30T01:15:35.682Z,22.80
2022-07-30T01:18:05.471Z,22.75
2022-07-30T01:20:37.397Z,22.92
2022-07-30T01:23:21.862Z,22.35
2022-07-30T01:25:56.295Z,22.02
2022-07-30T01:28:27.854Z,23.17
2022-07-30T01:31:01.413Z,22.90
2022-07-30T01:33:28.821Z,23.00
2022-07-30T01:35:56.177Z,22.92
2022-07-30T01:38:24.584Z,22.90
2022-07-30T01:40:53.060Z,22.20
2022-07-30T01:43:41.280Z,24.13
2022-07-30T01:46:09.143Z,23.40
2022-07-30T01:48:41.295Z,25.05
2022-07-30T01:51:11.862Z,24.53
2022-07-30T01:53:41.688Z,23.55
2022-07-30T01:56:10.733Z,25.35
2022-07-30T01:58:50.143Z,25.05
2022-07-30T02:01:20.545Z,26.00
2022-07-30T02:03:51.363Z,25.52
2022-07-30T02:06:21.834Z,27.77
2022-07-30T02:09:00.453Z,28.58
2022-07-30T02:11:51.748Z,29.00
2022-07-30T02:14:23.082Z,29.30
2022-07-30T02:16:54.627Z,29.35
2022-07-30T02:19:25.581Z,31.98
2022-07-30T02:22:23.956Z,31.48
2022-07-30T02:24:51.811Z,33.78
2022-07-30T02:27:24.842Z,33.33
2022-07-30T02:29:52.821Z,32.78
2022-07-30T02:32:22.394Z,34.03
2022-07-30T02:34:52.295Z,33.85
2022-07-30T02:37:41.079Z,36.03
2022-07-30T02:40:12.363Z,35.72
2022-07-30T02:42:49.945Z,36.35
2022-07-30T02:45:20.694Z,35.22
2022-07-30T02:47:52.614Z,36.90
2022-07-30T02:50:21.064Z,36.10
2022-07-30T02:52:52.079Z,35.85
2022-07-30T02:55:20.031Z,36.40
2022-07-30T02:57:47.941Z,36.28
2022-07-30T03:00:15.494Z,36.70
2022-07-30T03:02:45.103Z,37.20
2022-07-30T03:05:14.102Z,38.30
2022-07-30T03:07:41.469Z,37.10
2022-07-30T03:10:09.159Z,38.22
2022-07-30T03:12:37.385Z,37.63
2022-07-30T03:15:04.805Z,35.83
2022-07-30T03:17:35.868Z,39.53
2022-07-30T03:20:04.554Z,38.40
2022-07-30T03:22:33.220Z,38.58
2022-07-30T03:25:01.285Z,36.97
2022-07-30T03:27:28.870Z,38.78
2022-07-30T03:29:57.128Z,36.10
2022-07-30T03:32:26.145Z,37.95
2022-07-30T03:34:54.601Z,38.85
2022-07-30T03:37:25.350Z,37.30
2022-07-30T03:39:54.312Z,38.33
2022-07-30T03:42:22.199Z,37.55
2022-07-30T03:44:49.403Z,38.55
2022-07-30T03:47:16.991Z,38.60
2022-07-30T03:49:47.857Z,39.88
2022-07-30T03:52:15.066Z,39.58
2022-07-30T03:54:45.546Z,37.05
2022-07-30T03:57:55.651Z,38.95
2022-07-30T04:00:27.250Z,38.75
2022-07-30T04:02:55.369Z,38.08
2022-07-30T04:05:54.653Z,36.92
2022-07-30T04:08:21.973Z,35.80
2022-07-30T04:10:50.018Z,38.83
2022-07-30T04:13:19.980Z,38.05
2022-07-30T04:16:39.497Z,36.72
2022-07-30T04:18:59.636Z,35.15
2022-07-30T04:21:27.462Z,34.92
2022-07-30T04:24:03.660Z,35.75
2022-07-30T04:26:34.957Z,35.10
2022-07-30T04:29:05.827Z,35.15
2022-07-30T04:31:38.242Z,34.08
2022-07-30T04:34:28.812Z,30.83
2022-07-30T04:37:00.520Z,33.10
2022-07-30T04:39:41.093Z,33.75
2022-07-30T04:42:08.052Z,32.75
2022-07-30T04:44:38.739Z,33.38
2022-07-30T04:47:25.742Z,31.95
2022-07-30T04:50:16.590Z,29.23
2022-07-30T04:52:46.119Z,28.45
2022-07-30T04:55:18.930Z,32.63
2022-07-30T04:57:52.479Z,31.25
2022-07-30T05:00:20.411Z,31.63
2022-07-30T05:02:49.632Z,32.92
2022-07-30T05:05:17.675Z,33.35
2022-07-30T05:07:46.140Z,34.17
2022-07-30T05:10:16.956Z,34.92
2022-07-30T05:12:43.875Z,34.58
2022-07-30T05:15:11.637Z,34.55
2022-07-30T05:17:38.483Z,33.22
2022-07-30T05:20:10.257Z,36.22
2022-07-30T05:22:53.355Z,35.13
2022-07-30T05:25:21.825Z,37.20
2022-07-30T05:27:51.387Z,36.88
2022-07-30T05:30:18.415Z,37.72
2022-07-30T05:32:49.470Z,39.53
2022-07-30T05:35:17.223Z,38.25
2022-07-30T05:37:44.161Z,37.78
2022-07-30T05:40:12.822Z,36.92
2022-07-30T05:42:42.540Z,35.65
2022-07-30T05:45:09.844Z,36.97
2022-07-30T05:47:37.692Z,34.05
2022-07-30T05:50:05.499Z,32.35
2022-07-30T05:52:33.437Z,32.45
2022-07-30T05:55:11.057Z,28.02
2022-07-30T05:57:52.154Z,26.75
2022-07-30T06:00:19.367Z,23.92
2022-07-30T06:02:52.718Z,22.35
2022-07-30T06:07:52.750Z,21.67
2022-07-30T06:10:22.410Z,18.38
2022-07-30T06:12:49.299Z,19.85
2022-07-30T06:15:25.678Z,17.67
2022-07-30T06:18:01.933Z,17.00
2022-07-30T06:20:40.131Z,16.55
2022-07-30T06:23:33.275Z,15.10
2022-07-30T06:26:29.320Z,16.05
2022-07-30T06:28:56.553Z,15.18
2022-07-30T06:31:29.372Z,14.80
2022-07-30T06:33:56.417Z,14.10
2022-07-30T06:36:25.770Z,13.70
2022-07-30T06:39:00.783Z,14.85
2022-07-30T06:44:13.629Z,12.43
2022-07-30T06:47:02.881Z,12.38
2022-07-30T06:49:35.452Z,14.10
2022-07-30T06:52:03.470Z,13.05
2022-07-30T06:54:30.389Z,12.38
2022-07-30T06:57:20.253Z,11.77
2022-07-30T06:59:56.296Z,10.60
2022-07-30T07:02:39.680Z,10.88
2022-07-30T07:05:13.191Z,7.97
2022-07-30T07:07:52.425Z,8.60
2022-07-30T07:10:27.425Z,6.93
2022-07-30T07:13:20.659Z,7.38
2022-07-30T07:15:47.745Z,7.38
2022-07-30T07:18:19.120Z,6.80
2022-07-30T07:21:01.682Z,6.35
2022-07-30T07:23:42.098Z,6.70
2022-07-30T07:26:31.128Z,4.82
2022-07-30T07:29:01.065Z,4.57
2022-07-30T07:32:06.962Z,4.35
2022-07-30T07:34:17.754Z,3.38
2022-07-30T07:36:44.921Z,3.03
2022-07-30T07:39:13.034Z,2.58
2022-07-30T07:41:49.103Z,2.90
2022-07-30T07:44:19.175Z,3.22
2022-07-30T07:46:45.988Z,3.20
2022-07-30T07:49:13.018Z,3.85
2022-07-30T07:51:48.050Z,4.43
2022-07-30T07:54:22.023Z,4.15
2022-07-30T07:56:52.905Z,4.00
2022-07-30T07:59:25.465Z,4.00
2022-07-30T08:02:03.973Z,4.10
2022-07-30T08:04:56.506Z,4.10
2022-07-30T08:07:49.673Z,3.42
2022-07-30T08:10:19.294Z,2.90
2022-07-30T08:12:57.059Z,4.32
2022-07-30T08:15:29.758Z,3.80
2022-07-30T08:17:59.365Z,4.10
2022-07-30T08:20:39.796Z,3.65
2022-07-30T08:23:06.900Z,3.83
2022-07-30T08:25:33.907Z,4.22
2022-07-30T08:28:03.136Z,4.22
2022-07-30T08:30:31.015Z,4.40
2022-07-30T08:32:58.057Z,3.92
2022-07-30T08:35:25.724Z,4.20
2022-07-30T08:37:52.834Z,4.35
2022-07-30T08:40:26.484Z,3.85
2022-07-30T08:43:06.874Z,4.30
2022-07-30T08:45:35.446Z,4.72
2022-07-30T08:48:29.554Z,4.38
2022-07-30T08:50:56.768Z,4.50
2022-07-30T08:53:42.111Z,4.03
2022-07-30T08:56:09.375Z,5.90
2022-07-30T08:58:42.333Z,7.10
2022-07-30T09:01:09.331Z,8.80
2022-07-30T09:03:44.366Z,7.18
2022-07-30T09:06:11.954Z,8.73
2022-07-30T09:08:39.080Z,8.75
2022-07-30T09:11:05.871Z,9.45
2022-07-30T09:13:35.257Z,9.10
2022-07-30T09:16:04.207Z,7.93
2022-07-30T09:21:24.574Z,9.07
2022-07-30T09:24:12.042Z,8.02
2022-07-30T09:27:02.504Z,8.07
2022-07-30T09:29:57.714Z,11.00
2022-07-30T09:32:56.974Z,8.40
2022-07-30T09:35:43.268Z,8.85
2022-07-30T09:38:11.422Z,10.75
2022-07-30T09:40:57.723Z,12.27
2022-07-30T09:43:44.864Z,10.75
2022-07-30T09:46:19.926Z,10.48
2022-07-30T09:48:46.975Z,12.80
2022-07-30T09:54:00.987Z,10.00
2022-07-30T09:56:37.398Z,11.02
2022-07-30T09:59:07.243Z,12.98
2022-07-30T10:01:56.254Z,12.65
2022-07-30T10:04:46.930Z,15.10
2022-07-30T10:07:24.987Z,24.55
2022-07-30T10:09:59.440Z,14.70
2022-07-30T10:12:32.959Z,14.18
2022-07-30T10:15:01.967Z,14.52
2022-07-30T10:17:34.390Z,14.07
2022-07-30T10:20:28.712Z,15.13
2022-07-30T10:23:32.911Z,14.38
2022-07-30T10:26:27.065Z,14.23
2022-07-30T10:29:33.989Z,10.73
2022-07-30T10:32:01.843Z,11.60
2022-07-30T10:34:33.919Z,12.15
2022-07-30T10:37:04.611Z,12.55
2022-07-30T10:39:44.853Z,10.80
2022-07-30T10:42:58.950Z,12.40
2022-07-30T10:45:46.266Z,14.48
2022-07-30T10:48:18.050Z,13.85
2022-07-30T10:50:56.849Z,13.15
2022-07-30T10:53:48.561Z,13.90
2022-07-30T10:56:22.436Z,11.30
2022-07-30T10:59:04.243Z,11.18
2022-07-30T11:01:53.360Z,11.70
2022-07-30T11:04:25.586Z,12.80
2022-07-30T11:07:23.569Z,11.88
2022-07-30T11:10:05.361Z,13.00
2022-07-30T11:12:44.145Z,13.85
2022-07-30T11:15:18.437Z,13.63
2022-07-30T11:18:12.972Z,10.18
2022-07-30T11:20:45.689Z,13.75
2022-07-30T11:23:39.246Z,15.07
2022-07-30T11:26:07.127Z,14.63
2022-07-30T11:28:43.987Z,13.55
2022-07-30T11:31:54.981Z,13.65
2022-07-30T11:34:26.211Z,12.93
2022-07-30T11:37:18.199Z,13.95
2022-07-30T11:39:58.137Z,12.68
2022-07-30T11:42:29.120Z,12.13
2022-07-30T11:45:23.082Z,10.85
2022-07-30T11:47:51.793Z,10.77
2022-07-30T11:50:30.280Z,11.75
2022-07-30T11:53:00.344Z,11.23
2022-07-30T11:55:42.463Z,13.48
2022-07-30T11:58:14.763Z,13.37
2022-07-30T12:00:47.757Z,11.38
2022-07-30T12:05:43.548Z,15.18
2022-07-30T12:08:36.131Z,13.88
2022-07-30T12:11:00.647Z,12.98
2022-07-30T12:13:43.871Z,12.85
2022-07-30T12:16:14.511Z,12.02
2022-07-30T12:18:41.622Z,12.90
2022-07-30T12:21:13.731Z,13.60
2022-07-30T12:23:43.338Z,11.75
2022-07-30T12:26:26.625Z,11.70
2022-07-30T12:28:55.247Z,9.77
2022-07-30T12:31:22.484Z,9.25
2022-07-30T12:33:49.468Z,9.88
2022-07-30T12:36:32.165Z,10.07
2022-07-30T12:39:00.729Z,11.20
2022-07-30T12:41:50.296Z,10.68
2022-07-30T12:44:40.981Z,10.00
2022-07-30T12:47:27.440Z,10.68
2022-07-30T12:50:52.424Z,9.05
2022-07-30T12:52:51.710Z,8.32
2022-07-30T12:55:19.821Z,7.65
2022-07-30T12:58:07.613Z,8.75
2022-07-30T13:00:44.764Z,7.43
2022-07-30T13:03:24.943Z,5.80
2022-07-30T13:05:55.673Z,5.68
2022-07-30T13:08:45.161Z,4.68
2022-07-30T13:11:12.367Z,4.40
2022-07-30T13:13:39.564Z,4.15
2022-07-30T13:16:07.469Z,3.90
2022-07-30T13:18:35.573Z,3.97
2022-07-30T13:21:05.432Z,3.83
2022-07-30T13:23:32.660Z,3.53
2022-07-30T13:26:17.331Z,3.35
2022-07-30T13:28:46.545Z,1.77
2022-07-30T13:31:13.539Z,2.00
2022-07-30T13:33:40.613Z,1.80
2022-07-30T13:36:07.842Z,2.00
2022-07-30T13:38:35.002Z,1.77
2022-07-30T13:41:03.064Z,1.80
2022-07-30T13:43:33.599Z,1.70
2022-07-30T13:46:03.251Z,2.00
2022-07-30T13:48:30.601Z,1.70
2022-07-30T13:50:57.803Z,1.75
2022-07-30T13:53:24.663Z,2.00
2022-07-30T13:55:51.498Z,1.88
2022-07-30T13:58:18.522Z,2.13
2022-07-30T14:00:47.784Z,1.92
2022-07-30T14:03:16.648Z,1.70
2022-07-30T14:05:45.155Z,1.27
2022-07-30T14:08:13.577Z,1.10
2022-07-30T14:10:41.062Z,1.20
2022-07-30T14:13:20.818Z,1.40
2022-07-30T14:15:48.578Z,1.20
2022-07-30T14:18:15.503Z,1.10
2022-07-30T14:20:48.593Z,1.00
2022-07-30T14:23:16.585Z,1.10
2022-07-30T14:25:44.315Z,0.75
2022-07-30T14:28:11.219Z,0.80
2022-07-30T14:30:38.195Z,0.85
2022-07-30T14:33:05.300Z,0.93
2022-07-30T14:35:32.608Z,1.00
2022-07-30T14:37:59.643Z,0.80
2022-07-30T14:40:26.547Z,0.90
2022-07-30T14:42:56.210Z,0.90
2022-07-30T14:45:23.574Z,0.93
2022-07-30T14:47:53.663Z,1.15
2022-07-30T14:50:20.608Z,1.02
2022-07-30T14:52:47.625Z,1.00
2022-07-30T14:55:14.696Z,1.10
2022-07-30T14:57:43.403Z,1.40
2022-07-30T15:00:11.888Z,1.20
2022-07-30T15:02:38.927Z,1.00
2022-07-30T15:05:06.465Z,1.20
2022-07-30T15:07:34.877Z,1.55
2022-07-30T15:10:02.627Z,1.15
2022-07-30T15:12:29.547Z,0.80
2022-07-30T15:14:56.475Z,0.95
2022-07-30T15:17:26.648Z,0.88
2022-07-30T15:19:53.485Z,0.82
2022-07-30T15:22:21.737Z,0.88
2022-07-30T15:24:48.971Z,0.82
2022-07-30T15:27:16.561Z,0.77
2022-07-30T15:29:44.481Z,1.02
2022-07-30T15:32:11.429Z,1.20
2022-07-30T15:34:38.259Z,0.82
2022-07-30T15:37:05.605Z,0.65
2022-07-30T15:39:33.626Z,0.80
2022-07-30T15:42:01.986Z,1.00
2022-07-30T15:44:29.576Z,0.80
2022-07-30T15:46:56.526Z,0.93
2022-07-30T15:49:23.792Z,0.60
2022-07-30T15:51:51.823Z,0.70
2022-07-30T15:54:22.886Z,0.68
2022-07-30T15:56:50.713Z,1.10
2022-07-30T15:59:17.730Z,0.60
2022-07-30T16:01:44.661Z,0.50
2022-07-30T16:04:19.725Z,0.52
2022-07-30T16:06:49.979Z,0.70
2022-07-30T16:09:16.956Z,0.50
2022-07-30T16:11:43.827Z,0.68
2022-07-30T16:14:10.938Z,0.73
2022-07-30T16:16:38.219Z,0.70
2022-07-30T16:19:05.094Z,0.57
2022-07-30T16:21:31.965Z,0.50
2022-07-30T16:23:59.171Z,0.57
2022-07-30T16:26:26.111Z,0.60
2022-07-30T16:28:53.372Z,0.60
2022-07-30T16:31:20.155Z,0.70
2022-07-30T16:33:47.389Z,0.65
2022-07-30T16:36:14.444Z,1.45
2022-07-30T16:38:41.443Z,0.80
2022-07-30T16:41:13.470Z,1.02
2022-07-30T16:43:41.083Z,1.05
2022-07-30T16:46:08.341Z,0.80
2022-07-30T16:48:35.234Z,0.70
2022-07-30T16:51:02.428Z,0.80
2022-07-30T16:53:29.828Z,0.70
2022-07-30T16:55:57.176Z,0.60
2022-07-30T16:58:28.345Z,0.93
2022-07-30T17:00:58.310Z,0.60
2022-07-30T17:03:25.704Z,0.80
2022-07-30T17:05:53.313Z,0.70
2022-07-30T17:08:24.967Z,0.85
2022-07-30T17:10:53.132Z,0.60
2022-07-30T17:13:20.808Z,0.70
2022-07-30T17:15:48.169Z,1.00
2022-07-30T17:18:15.504Z,1.02
2022-07-30T17:20:42.692Z,0.73
2022-07-30T17:23:09.575Z,0.90
2022-07-30T17:25:36.496Z,0.80
2022-07-30T17:28:03.839Z,0.70
2022-07-30T17:30:30.806Z,0.93
2022-07-30T17:32:57.839Z,1.35
2022-07-30T17:35:25.074Z,0.80
2022-07-30T17:37:52.293Z,0.70
2022-07-30T17:40:30.769Z,1.10
2022-07-30T17:43:04.923Z,0.93
2022-07-30T17:45:33.215Z,2.72
2022-07-30T17:48:01.748Z,0.98
2022-07-30T17:50:30.163Z,1.23
2022-07-30T17:52:58.998Z,1.40
2022-07-30T17:55:28.541Z,5.10
2022-07-30T17:57:55.904Z,2.83
2022-07-30T18:00:23.463Z,1.08
2022-07-30T18:02:50.384Z,1.08
2022-07-30T18:05:17.273Z,1.35
2022-07-30T18:07:44.432Z,2.00
2022-07-30T18:10:12.437Z,2.00
2022-07-30T18:13:26.223Z,1.95
2022-07-30T18:15:52.911Z,2.05
2022-07-30T18:18:19.764Z,1.83
2022-07-30T18:20:48.421Z,1.20
2022-07-30T18:23:19.261Z,0.90
2022-07-30T18:25:51.920Z,1.90
2022-07-30T18:28:21.699Z,1.00
2022-07-30T18:30:48.594Z,5.25
2022-07-30T18:33:18.070Z,1.85
2022-07-30T18:35:44.931Z,0.90
2022-07-30T18:38:11.742Z,0.82
2022-07-30T18:40:38.635Z,1.63
2022-07-30T18:43:07.987Z,2.97
2022-07-30T18:45:37.254Z,1.58
2022-07-30T18:48:04.792Z,0.80
2022-07-30T18:50:32.898Z,1.00
2022-07-30T18:52:59.820Z,1.90
2022-07-30T18:55:26.712Z,1.00
2022-07-30T18:57:53.515Z,0.90
2022-07-30T19:00:31.097Z,1.00
2022-07-30T19:03:02.596Z,0.90
2022-07-30T19:05:29.713Z,1.40
2022-07-30T19:07:57.795Z,2.53
2022-07-30T19:10:26.611Z,1.35
2022-07-30T19:12:54.961Z,1.38
2022-07-30T19:15:21.929Z,1.30
2022-07-30T19:17:51.253Z,1.30
2022-07-30T19:20:19.749Z,1.20
2022-07-30T19:22:50.368Z,1.10
2022-07-30T19:25:20.995Z,1.23
2022-07-30T19:27:47.925Z,1.35
2022-07-30T19:30:14.748Z,1.20
2022-07-30T19:32:41.802Z,1.10
2022-07-30T19:35:10.317Z,1.20
2022-07-30T19:37:41.470Z,1.30
2022-07-30T19:40:10.735Z,1.35
2022-07-30T19:42:41.257Z,1.88
2022-07-30T19:45:11.802Z,1.10
2022-07-30T19:47:39.769Z,1.20
2022-07-30T19:50:10.245Z,1.20
2022-07-30T19:52:51.258Z,1.33
2022-07-30T19:55:35.209Z,1.45
2022-07-30T19:58:21.047Z,1.30
2022-07-30T20:00:49.571Z,1.67
2022-07-30T20:03:19.072Z,1.17
2022-07-30T20:05:57.528Z,1.10
2022-07-30T20:08:27.868Z,1.10
2022-07-30T20:10:57.803Z,1.00
2022-07-30T20:13:45.467Z,1.25
2022-07-30T20:16:17.480Z,1.90
2022-07-30T20:22:06.913Z,1.80
2022-07-30T20:24:20.528Z,1.30
2022-07-30T20:26:48.075Z,1.75
2022-07-30T20:29:19.280Z,1.60
2022-07-30T20:31:49.730Z,1.50
2022-07-30T20:34:23.212Z,1.33
2022-07-30T20:36:51.397Z,4.55
2022-07-30T20:42:08.373Z,2.63
2022-07-30T20:44:35.847Z,3.30
2022-07-30T20:47:08.203Z,4.72
2022-07-30T20:49:36.164Z,3.70
2022-07-30T20:52:04.079Z,2.80
2022-07-30T20:54:31.946Z,3.15
2022-07-30T20:57:00.127Z,2.75
2022-07-30T20:59:27.698Z,4.75
2022-07-30T21:01:55.818Z,4.07
2022-07-30T21:04:46.881Z,6.30
2022-07-30T21:07:20.629Z,4.95
2022-07-30T21:09:49.708Z,3.00
2022-07-30T21:12:18.792Z,6.50
2022-07-30T21:14:59.489Z,3.50
2022-07-30T21:17:26.982Z,3.60
2022-07-30T21:19:55.097Z,4.65
2022-07-30T21:22:22.483Z,4.10
2022-07-30T21:24:50.932Z,8.10
2022-07-30T21:27:18.970Z,3.13
2022-07-30T21:29:46.011Z,5.15
2022-07-30T21:32:13.219Z,4.63
2022-07-30T21:34:42.356Z,4.75
2022-07-30T21:37:09.867Z,12.30
2022-07-30T21:39:40.079Z,3.58
2022-07-30T21:42:10.217Z,2.92
2022-07-30T21:44:38.154Z,4.63
2022-07-30T21:47:10.460Z,3.30
2022-07-30T21:49:39.056Z,3.55
2022-07-30T21:52:08.427Z,3.53
2022-07-30T21:57:26.689Z,4.40
2022-07-30T21:59:58.046Z,3.70
2022-07-30T22:02:25.222Z,3.30
2022-07-30T22:04:53.622Z,2.50
2022-07-30T22:07:21.827Z,3.00
2022-07-30T22:09:49.076Z,3.28
2022-07-30T22:12:18.416Z,3.83
2022-07-30T22:14:46.935Z,3.08
2022-07-30T22:17:23.391Z,2.83
2022-07-30T22:20:08.555Z,2.97
2022-07-30T22:22:39.210Z,2.65
2022-07-30T22:25:09.495Z,2.85
2022-07-30T22:27:39.787Z,3.03
2022-07-30T22:30:26.701Z,2.67
2022-07-30T22:32:55.143Z,3.30
2022-07-30T22:35:46.674Z,3.35
2022-07-30T22:38:17.177Z,3.53
2022-07-30T22:40:48.174Z,3.50
2022-07-30T22:43:16.352Z,3.08
2022-07-30T22:45:47.972Z,4.03
2022-07-30T22:48:16.357Z,4.20
2022-07-30T22:50:43.367Z,4.95
2022-07-30T22:53:56.841Z,6.72
2022-07-30T22:55:58.737Z,4.07
2022-07-30T22:58:26.733Z,4.30
2022-07-30T23:00:54.611Z,3.70
2022-07-30T23:03:21.454Z,4.45
2022-07-30T23:05:55.940Z,5.72
2022-07-30T23:08:29.859Z,4.28
2022-07-30T23:10:58.034Z,3.85
2022-07-30T23:12:17.186Z,1.67
2022-07-30T23:12:19.253Z,2.88
2022-07-30T23:12:33.132Z,6.00
2022-07-30T23:13:24.805Z,3.85
2022-07-30T23:15:51.569Z,3.70
2022-07-30T23:18:18.448Z,3.00
2022-07-30T23:20:51.542Z,4.70
2022-07-30T23:25:46.089Z,6.03
2022-07-30T23:28:13.055Z,5.90
2022-07-30T23:30:40.111Z,6.50
2022-07-30T23:33:06.909Z,6.18
2022-07-30T23:35:34.129Z,7.03
2022-07-30T23:38:02.269Z,6.68
2022-07-30T23:43:50.270Z,6.72
2022-07-30T23:46:17.416Z,6.72
2022-07-30T23:48:44.759Z,7.30
2022-07-30T23:51:38.402Z,6.93
2022-07-30T23:54:29.290Z,7.85
2022-07-30T23:56:56.249Z,8.80
2022-07-30T23:59:36.770Z,7.93
